Time;durP1;ratioP1;P1;durP2;ratioP2;P2;SDS_P1;SDS_P2;PMS_P1;PMS_P2;Temp;Humidity;BMP_temperature;BMP_pressure;BME280_temperature;BME280_humidity;BME280_pressure;Samples;Min_cycle;Max_cycle;Signal;HPM_P1;HPM_P2
2021/10/03 00:00:42;;;;;;;2.53;0.30;;;16.30;99.90;;;;;;5106568;27;20036;-73
2021/10/03 00:03:11;;;;;;;1.00;0.40;;;16.30;99.90;;;;;;5073928;27;20125;-73
2021/10/03 00:05:38;;;;;;;0.80;0.40;;;16.30;99.90;;;;;;5088288;27;20031;-73
2021/10/03 00:08:05;;;;;;;0.70;0.40;;;16.40;99.90;;;;;;5070788;27;20061;-73
2021/10/03 00:10:32;;;;;;;0.50;0.30;;;16.40;99.90;;;;;;5087787;27;20044;-73
2021/10/03 00:13:03;;;;;;;0.95;0.40;;;16.40;99.90;;;;;;5110248;27;20027;-73
2021/10/03 00:15:32;;;;;;;0.70;0.40;;;16.40;99.90;;;;;;5114326;27;21041;-73
2021/10/03 00:17:58;;;;;;;0.65;0.40;;;16.50;99.90;;;;;;5109793;27;20027;-73
2021/10/03 00:20:26;;;;;;;1.13;0.40;;;16.50;99.90;;;;;;5079115;27;20039;-73
2021/10/03 00:22:52;;;;;;;0.90;0.60;;;16.50;99.90;;;;;;5089125;27;20066;-73
2021/10/03 00:25:20;;;;;;;1.67;0.40;;;16.50;99.90;;;;;;5109677;27;20031;-73
2021/10/03 00:27:47;;;;;;;2.58;0.40;;;16.50;99.90;;;;;;5113130;27;20044;-73
2021/10/03 00:30:15;;;;;;;0.70;0.38;;;16.50;99.90;;;;;;5089411;27;20058;-73
2021/10/03 00:32:42;;;;;;;1.58;0.40;;;16.50;99.90;;;;;;5115452;27;20039;-73
2021/10/03 00:35:09;;;;;;;0.80;0.40;;;16.50;99.90;;;;;;5114222;27;20043;-73
2021/10/03 00:37:35;;;;;;;2.70;0.52;;;16.50;99.90;;;;;;5110914;27;20629;-73
2021/10/03 00:40:03;;;;;;;0.70;0.47;;;16.60;99.90;;;;;;5112633;27;20030;-73
2021/10/03 00:42:29;;;;;;;0.45;0.30;;;16.60;99.90;;;;;;5086941;27;20051;-73
2021/10/03 00:44:56;;;;;;;0.77;0.40;;;16.60;99.90;;;;;;5089249;27;20058;-73
2021/10/03 00:47:23;;;;;;;1.02;0.30;;;16.60;99.90;;;;;;5114896;27;20109;-73
2021/10/03 00:49:49;;;;;;;2.03;0.40;;;16.60;99.90;;;;;;5109962;27;20058;-72
2021/10/03 00:52:16;;;;;;;1.27;0.30;;;16.60;99.90;;;;;;5090407;27;20035;-72
2021/10/03 00:54:42;;;;;;;1.02;0.30;;;16.70;99.90;;;;;;5086460;27;20036;-73
2021/10/03 00:57:09;;;;;;;0.68;0.30;;;16.70;99.90;;;;;;5068364;28;20028;-72
2021/10/03 00:59:35;;;;;;;0.55;0.40;;;16.70;99.90;;;;;;5066055;27;20028;-73
2021/10/03 01:02:02;;;;;;;0.82;0.35;;;16.70;99.90;;;;;;5066729;27;20039;-73
2021/10/03 01:04:28;;;;;;;1.15;0.40;;;16.70;99.90;;;;;;5071255;27;20047;-73
2021/10/03 01:06:55;;;;;;;0.60;0.30;;;16.70;99.90;;;;;;5109968;27;20067;-72
2021/10/03 01:09:22;;;;;;;1.42;0.40;;;16.80;99.90;;;;;;5060642;27;20043;-73
2021/10/03 01:11:49;;;;;;;0.45;0.30;;;16.80;99.90;;;;;;5085917;27;20046;-73
2021/10/03 01:14:17;;;;;;;2.35;0.20;;;16.70;99.90;;;;;;5084507;27;20023;-73
2021/10/03 01:16:45;;;;;;;0.60;0.40;;;16.80;99.90;;;;;;5068005;27;20468;-72
2021/10/03 01:19:13;;;;;;;0.82;0.30;;;16.80;99.90;;;;;;5065138;28;20412;-72
2021/10/03 01:21:45;;;;;;;0.68;0.30;;;16.80;99.90;;;;;;5113081;27;20372;-72
2021/10/03 01:24:12;;;;;;;0.82;0.30;;;16.80;99.90;;;;;;5064165;28;20036;-72
2021/10/03 01:26:39;;;;;;;0.57;0.30;;;16.80;99.90;;;;;;5108777;27;20027;-72
2021/10/03 01:29:07;;;;;;;2.30;0.40;;;16.80;99.90;;;;;;5088817;27;20050;-73
2021/10/03 01:31:34;;;;;;;2.42;0.30;;;16.80;99.90;;;;;;5086601;28;20050;-72
2021/10/03 01:34:01;;;;;;;1.00;0.30;;;16.80;99.90;;;;;;5084395;28;20031;-73
2021/10/03 01:36:28;;;;;;;1.08;0.35;;;16.80;99.90;;;;;;5115069;27;20036;-72
2021/10/03 01:38:54;;;;;;;0.50;0.30;;;16.80;99.90;;;;;;5068290;27;20044;-73
2021/10/03 01:41:22;;;;;;;1.85;0.30;;;16.80;99.90;;;;;;5108528;27;20043;-72
2021/10/03 01:43:48;;;;;;;0.50;0.30;;;16.80;99.90;;;;;;5084566;27;20035;-73
2021/10/03 01:46:15;;;;;;;0.68;0.30;;;16.70;99.90;;;;;;5049984;27;20036;-74
2021/10/03 01:48:41;;;;;;;0.60;0.20;;;16.70;99.90;;;;;;5085424;28;20043;-73
2021/10/03 01:51:10;;;;;;;0.60;0.30;;;16.70;99.90;;;;;;5082213;27;20043;-73
2021/10/03 01:53:47;;;;;;;0.60;0.30;;;16.70;99.90;;;;;;5111346;27;20040;-73
2021/10/03 01:56:15;;;;;;;0.50;0.20;;;16.70;99.90;;;;;;5088827;27;20031;-73
2021/10/03 01:58:51;;;;;;;1.95;0.30;;;16.60;99.90;;;;;;5114908;27;20043;-73
2021/10/03 02:01:24;;;;;;;0.73;0.30;;;16.60;99.90;;;;;;5112367;27;20034;-73
2021/10/03 02:03:50;;;;;;;1.95;0.30;;;16.60;99.90;;;;;;5083122;27;20051;-73
2021/10/03 02:06:17;;;;;;;0.50;0.30;;;16.60;99.90;;;;;;5088769;27;20391;-73
2021/10/03 02:08:44;;;;;;;0.55;0.40;;;16.60;99.90;;;;;;5108595;27;20047;-72
2021/10/03 02:11:10;;;;;;;0.43;0.20;;;16.60;99.90;;;;;;5110776;27;20054;-72
2021/10/03 02:13:37;;;;;;;0.60;0.32;;;16.60;99.90;;;;;;5109462;27;20407;-72
2021/10/03 02:16:03;;;;;;;1.27;0.32;;;16.60;99.90;;;;;;5065953;27;20047;-72
2021/10/03 02:18:39;;;;;;;0.60;0.30;;;16.60;99.90;;;;;;5069244;27;20498;-72
2021/10/03 02:21:07;;;;;;;1.40;0.30;;;16.60;99.90;;;;;;5111132;27;20406;-72
2021/10/03 02:23:34;;;;;;;1.00;0.30;;;16.60;99.90;;;;;;5082616;27;20036;-72
2021/10/03 02:26:01;;;;;;;0.65;0.30;;;16.60;99.90;;;;;;5111697;27;20031;-72
2021/10/03 02:28:28;;;;;;;0.85;0.30;;;16.70;99.90;;;;;;5084263;27;20069;-72
2021/10/03 02:30:58;;;;;;;1.17;0.30;;;16.60;99.90;;;;;;5106838;27;20031;-72
2021/10/03 02:33:25;;;;;;;1.27;0.30;;;16.60;99.90;;;;;;5084376;27;20046;-72
2021/10/03 02:35:52;;;;;;;1.67;0.28;;;16.70;99.90;;;;;;5085627;27;20053;-72
2021/10/03 02:38:20;;;;;;;0.77;0.40;;;16.60;99.90;;;;;;5082299;28;20039;-73
2021/10/03 02:40:48;;;;;;;0.52;0.30;;;16.70;99.90;;;;;;5085487;27;20028;-72
2021/10/03 02:43:15;;;;;;;1.75;0.40;;;16.70;99.90;;;;;;5055983;28;20913;-72
2021/10/03 02:45:45;;;;;;;1.13;0.45;;;16.70;99.90;;;;;;5066640;27;20043;-72
2021/10/03 02:48:12;;;;;;;0.55;0.30;;;16.70;99.90;;;;;;5109096;27;20401;-72
2021/10/03 02:50:39;;;;;;;0.80;0.30;;;16.70;99.90;;;;;;5069317;27;20048;-72
2021/10/03 02:53:09;;;;;;;0.43;0.30;;;16.60;99.90;;;;;;5105157;27;20035;-72
2021/10/03 02:55:36;;;;;;;1.17;0.30;;;16.60;99.90;;;;;;5102909;27;20040;-72
2021/10/03 02:58:04;;;;;;;0.60;0.30;;;16.60;99.90;;;;;;5064981;28;20035;-72
2021/10/03 03:00:33;;;;;;;1.73;0.40;;;16.60;99.90;;;;;;5079460;28;20043;-72
2021/10/03 03:02:59;;;;;;;0.73;0.30;;;16.60;99.90;;;;;;5080846;28;20043;-74
2021/10/03 03:05:26;;;;;;;1.10;0.30;;;16.60;99.90;;;;;;5082988;27;20070;-74
2021/10/03 03:07:52;;;;;;;0.80;0.30;;;16.60;99.90;;;;;;5068110;27;20050;-74
2021/10/03 03:10:19;;;;;;;1.77;0.40;;;16.60;99.90;;;;;;5066322;28;20500;-74
2021/10/03 03:12:45;;;;;;;0.63;0.40;;;16.60;99.90;;;;;;5083981;28;20047;-74
2021/10/03 03:15:12;;;;;;;1.38;0.30;;;16.60;99.90;;;;;;5107215;28;20027;-75
2021/10/03 03:17:39;;;;;;;0.50;0.30;;;16.60;99.90;;;;;;5083290;28;20042;-74
2021/10/03 03:20:08;;;;;;;1.35;0.40;;;16.60;99.90;;;;;;5070015;28;20047;-75
2021/10/03 03:22:35;;;;;;;2.45;0.40;;;16.60;99.90;;;;;;5088190;28;20042;-74
2021/10/03 03:25:05;;;;;;;0.77;0.40;;;16.70;99.90;;;;;;5084460;28;20043;-74
2021/10/03 03:27:32;;;;;;;0.80;0.57;;;16.60;99.90;;;;;;5083919;28;20047;-74
2021/10/03 03:29:58;;;;;;;1.55;0.57;;;16.70;99.90;;;;;;5114450;27;20035;-74
2021/10/03 03:32:24;;;;;;;0.93;0.35;;;16.70;99.90;;;;;;5106690;28;20130;-74
2021/10/03 03:34:51;;;;;;;0.68;0.30;;;16.70;99.90;;;;;;5082692;28;20054;-74
2021/10/03 03:37:17;;;;;;;0.88;0.50;;;16.70;99.90;;;;;;5066390;28;20043;-74
2021/10/03 03:39:44;;;;;;;0.77;0.43;;;16.70;99.90;;;;;;5082221;28;20035;-74
2021/10/03 03:42:10;;;;;;;0.82;0.50;;;16.70;99.90;;;;;;5114843;28;20040;-74
2021/10/03 03:44:37;;;;;;;2.60;0.60;;;16.60;99.90;;;;;;5082767;28;20035;-74
2021/10/03 03:47:03;;;;;;;4.15;0.77;;;16.70;99.90;;;;;;5089261;27;20039;-74
2021/10/03 03:49:30;;;;;;;2.55;0.70;;;16.70;99.90;;;;;;5112717;27;20387;-74
2021/10/03 03:51:57;;;;;;;2.25;0.70;;;16.60;99.90;;;;;;5109450;28;20051;-74
2021/10/03 03:54:23;;;;;;;1.50;0.75;;;16.70;99.90;;;;;;5084850;28;20383;-72
2021/10/03 03:56:50;;;;;;;1.70;0.77;;;16.70;99.90;;;;;;5068114;28;20057;-73
2021/10/03 03:59:16;;;;;;;1.35;0.50;;;16.70;99.90;;;;;;5083968;28;20062;-72
2021/10/03 04:01:42;;;;;;;3.20;0.40;;;16.60;99.90;;;;;;5114776;27;20035;-73
2021/10/03 04:04:10;;;;;;;2.55;0.30;;;16.50;99.90;;;;;;5082597;28;20056;-73
2021/10/03 04:06:37;;;;;;;2.05;0.30;;;16.40;99.90;;;;;;5083413;28;20129;-73
2021/10/03 04:09:03;;;;;;;0.38;0.13;;;16.30;99.90;;;;;;5082537;28;20043;-73
2021/10/03 04:11:29;;;;;;;0.60;0.20;;;16.20;99.90;;;;;;5052023;28;20051;-73
2021/10/03 04:13:56;;;;;;;0.70;0.13;;;16.20;99.90;;;;;;5086846;27;20042;-73
2021/10/03 04:16:22;;;;;;;0.20;0.10;;;16.10;99.90;;;;;;5090597;27;20043;-72
2021/10/03 04:18:48;;;;;;;2.58;0.20;;;16.00;99.90;;;;;;5113800;27;20039;-73
2021/10/03 04:21:15;;;;;;;0.70;0.15;;;16.00;99.90;;;;;;5088629;27;20043;-73
2021/10/03 04:23:41;;;;;;;0.40;0.20;;;16.00;99.90;;;;;;5086841;27;20035;-73
2021/10/03 04:26:08;;;;;;;2.50;0.10;;;15.90;99.90;;;;;;5118856;27;20046;-73
2021/10/03 04:28:34;;;;;;;0.77;0.10;;;15.80;99.90;;;;;;5084106;27;20062;-73
2021/10/03 04:31:01;;;;;;;0.47;0.10;;;15.70;99.90;;;;;;5085434;28;20392;-73
2021/10/03 04:33:27;;;;;;;1.00;0.10;;;15.60;99.90;;;;;;5068565;27;20043;-73
2021/10/03 04:35:54;;;;;;;1.63;0.10;;;15.50;99.90;;;;;;5089862;27;20368;-73
2021/10/03 04:38:20;;;;;;;0.82;0.10;;;15.40;99.90;;;;;;5085290;27;20032;-73
2021/10/03 04:40:46;;;;;;;0.73;0.13;;;15.30;99.90;;;;;;5086635;27;20032;-73
2021/10/03 04:43:13;;;;;;;1.17;0.10;;;15.30;99.90;;;;;;5068536;27;20817;-73
2021/10/03 04:45:42;;;;;;;1.30;0.10;;;15.20;99.90;;;;;;5105198;27;20035;-73
2021/10/03 04:48:08;;;;;;;0.25;0.10;;;15.20;99.90;;;;;;5082292;28;20035;-73
2021/10/03 04:50:35;;;;;;;0.10;0.10;;;15.20;99.90;;;;;;5108415;27;20048;-73
2021/10/03 04:53:01;;;;;;;1.10;0.10;;;15.20;99.90;;;;;;5088057;27;20042;-73
2021/10/03 04:55:28;;;;;;;0.73;0.25;;;15.10;99.90;;;;;;5072104;27;20047;-73
2021/10/03 04:57:54;;;;;;;1.20;0.10;;;15.20;99.90;;;;;;5083821;28;20047;-73
2021/10/03 05:00:20;;;;;;;0.57;0.10;;;15.10;99.90;;;;;;5071488;27;20024;-73
2021/10/03 05:02:47;;;;;;;0.60;0.10;;;15.10;99.90;;;;;;5111026;27;20867;-73
2021/10/03 05:05:14;;;;;;;0.73;0.20;;;15.10;99.90;;;;;;5084837;27;20046;-73
2021/10/03 05:07:40;;;;;;;0.60;0.20;;;15.00;99.90;;;;;;5115067;27;20047;-73
2021/10/03 05:10:07;;;;;;;0.88;0.20;;;15.00;99.90;;;;;;5109613;27;20523;-73
2021/10/03 05:12:33;;;;;;;0.25;0.10;;;15.00;99.90;;;;;;5084836;27;20047;-74
2021/10/03 05:14:59;;;;;;;0.30;0.10;;;15.00;99.90;;;;;;5111687;27;20035;-74
2021/10/03 05:17:26;;;;;;;1.80;0.20;;;15.00;99.90;;;;;;5113036;27;20479;-73
2021/10/03 05:19:52;;;;;;;0.40;0.10;;;15.00;99.90;;;;;;5085576;27;20047;-73
2021/10/03 05:22:19;;;;;;;0.52;0.20;;;15.00;99.90;;;;;;5110486;27;20518;-73
2021/10/03 05:24:45;;;;;;;0.98;0.30;;;15.10;99.90;;;;;;5086008;27;20027;-72
2021/10/03 05:27:11;;;;;;;1.58;0.40;;;15.00;99.90;;;;;;5083612;27;20039;-73
2021/10/03 05:29:38;;;;;;;1.50;0.60;;;15.00;99.90;;;;;;5087526;27;20035;-73
2021/10/03 05:32:05;;;;;;;1.38;0.40;;;15.00;99.90;;;;;;5068590;27;20042;-73
2021/10/03 05:34:31;;;;;;;1.90;0.40;;;15.00;99.90;;;;;;5072867;27;20061;-73
2021/10/03 05:36:58;;;;;;;1.83;0.20;;;15.00;99.90;;;;;;5085754;27;20032;-73
2021/10/03 05:39:24;;;;;;;1.58;0.60;;;15.00;99.90;;;;;;5109295;27;20035;-73
2021/10/03 05:41:50;;;;;;;0.85;0.32;;;15.00;99.90;;;;;;5107545;27;20031;-73
2021/10/03 05:44:17;;;;;;;1.35;0.40;;;14.90;99.90;;;;;;5110482;27;20038;-73
2021/10/03 05:46:43;;;;;;;0.98;0.30;;;14.90;99.90;;;;;;5112213;27;20027;-73
2021/10/03 05:49:10;;;;;;;0.68;0.30;;;14.90;99.90;;;;;;5117025;27;20117;-73
2021/10/03 05:51:36;;;;;;;2.05;0.20;;;14.90;99.90;;;;;;5063516;28;20059;-73
2021/10/03 05:54:03;;;;;;;0.82;0.30;;;14.90;99.90;;;;;;5082475;28;20044;-73
2021/10/03 05:56:30;;;;;;;1.48;0.30;;;14.90;99.90;;;;;;5082160;28;20391;-73
2021/10/03 05:58:56;;;;;;;0.70;0.20;;;14.90;99.90;;;;;;5069078;28;20035;-73
2021/10/03 06:01:22;;;;;;;0.40;0.20;;;15.00;99.90;;;;;;5083910;28;20031;-73
2021/10/03 06:03:49;;;;;;;0.40;0.20;;;15.00;99.90;;;;;;5079363;28;20067;-73
2021/10/03 06:06:15;;;;;;;0.82;0.25;;;15.00;99.90;;;;;;5082119;28;20036;-73
2021/10/03 06:08:42;;;;;;;2.42;0.40;;;15.00;99.90;;;;;;5066067;28;20055;-73
2021/10/03 06:11:08;;;;;;;0.65;0.30;;;14.90;99.90;;;;;;5088821;28;20038;-73
2021/10/03 06:13:34;;;;;;;2.35;0.63;;;14.90;99.90;;;;;;5089169;28;20044;-73
2021/10/03 06:16:01;;;;;;;2.40;0.40;;;14.90;99.90;;;;;;5069397;28;20036;-73
2021/10/03 06:18:27;;;;;;;4.07;0.50;;;14.90;99.90;;;;;;5080056;28;20043;-73
2021/10/03 06:20:54;;;;;;;1.60;0.40;;;14.80;99.90;;;;;;5066328;28;20509;-73
2021/10/03 06:23:20;;;;;;;2.60;0.65;;;14.80;99.90;;;;;;5089306;28;20046;-73
2021/10/03 06:25:47;;;;;;;1.52;0.40;;;14.80;99.90;;;;;;5081836;28;20047;-73
2021/10/03 06:28:13;;;;;;;2.10;0.55;;;14.70;99.90;;;;;;5066176;28;20829;-73
2021/10/03 06:30:39;;;;;;;2.53;0.57;;;14.70;99.90;;;;;;5082137;28;20047;-73
2021/10/03 06:33:06;;;;;;;2.35;0.50;;;14.70;99.90;;;;;;5078626;28;20036;-73
2021/10/03 06:35:32;;;;;;;2.85;0.40;;;14.70;99.90;;;;;;5081582;28;20032;-72
2021/10/03 06:37:59;;;;;;;0.95;0.32;;;14.70;99.90;;;;;;5083544;28;20447;-72
2021/10/03 06:40:27;;;;;;;3.00;0.30;;;14.70;99.90;;;;;;5094491;28;20396;-72
2021/10/03 06:42:53;;;;;;;2.00;0.38;;;14.70;99.90;;;;;;5081846;28;20043;-73
2021/10/03 06:45:20;;;;;;;3.30;0.40;;;14.70;99.90;;;;;;5061673;28;20039;-73
2021/10/03 06:47:47;;;;;;;1.40;0.40;;;14.70;99.90;;;;;;5081022;28;20052;-73
2021/10/03 06:50:13;;;;;;;0.82;0.35;;;14.70;99.90;;;;;;5086827;28;20039;-73
2021/10/03 06:52:39;;;;;;;1.73;0.40;;;14.70;99.90;;;;;;5082577;27;20065;-73
2021/10/03 06:55:07;;;;;;;1.08;0.40;;;14.80;99.90;;;;;;5110084;27;20039;-73
2021/10/03 06:57:33;;;;;;;2.00;0.35;;;14.70;99.90;;;;;;5085634;28;20051;-73
2021/10/03 07:00:01;;;;;;;1.52;0.40;;;14.80;99.90;;;;;;5084794;27;20055;-73
2021/10/03 07:02:29;;;;;;;1.05;0.32;;;14.70;99.90;;;;;;5084328;28;20039;-73
2021/10/03 07:04:55;;;;;;;0.90;0.30;;;14.70;99.90;;;;;;5104499;27;20043;-73
2021/10/03 07:07:22;;;;;;;0.93;0.40;;;14.70;99.90;;;;;;5110094;27;20043;-73
2021/10/03 07:09:49;;;;;;;1.52;0.45;;;14.80;99.90;;;;;;5069503;28;20040;-73
2021/10/03 07:12:16;;;;;;;0.68;0.40;;;14.70;99.90;;;;;;5087011;28;20410;-73
2021/10/03 07:14:43;;;;;;;1.02;0.35;;;14.70;99.90;;;;;;5111645;28;20027;-73
2021/10/03 07:17:11;;;;;;;2.03;0.40;;;14.80;99.90;;;;;;5114722;28;20047;-72
2021/10/03 07:19:37;;;;;;;1.17;0.40;;;14.70;99.90;;;;;;5084120;28;20499;-72
2021/10/03 07:22:05;;;;;;;1.45;0.50;;;14.80;99.90;;;;;;5085935;28;20050;-72
2021/10/03 07:24:31;;;;;;;2.58;0.50;;;14.80;99.90;;;;;;5110285;28;20035;-73
2021/10/03 07:26:57;;;;;;;0.90;0.50;;;14.80;99.90;;;;;;5083671;28;20044;-73
2021/10/03 07:29:24;;;;;;;1.65;0.50;;;14.80;99.90;;;;;;5067587;28;20153;-73
2021/10/03 07:31:50;;;;;;;1.48;0.60;;;14.80;99.90;;;;;;5069366;28;20046;-73
2021/10/03 07:34:17;;;;;;;1.95;0.50;;;14.70;99.90;;;;;;5069323;28;20041;-72
2021/10/03 07:36:44;;;;;;;2.28;0.60;;;14.70;99.90;;;;;;5112711;27;20039;-73
2021/10/03 07:39:10;;;;;;;1.70;0.90;;;14.70;99.90;;;;;;5085519;28;20062;-72
2021/10/03 07:41:37;;;;;;;2.05;0.82;;;14.70;99.90;;;;;;5086969;28;20041;-73
2021/10/03 07:44:04;;;;;;;2.38;1.00;;;14.70;99.90;;;;;;5067823;28;20070;-73
2021/10/03 07:46:30;;;;;;;2.88;0.93;;;14.70;99.90;;;;;;5071235;27;20460;-73
2021/10/03 07:48:57;;;;;;;1.50;0.90;;;14.70;99.90;;;;;;5112339;27;20032;-73
2021/10/03 07:51:24;;;;;;;2.70;1.10;;;14.70;99.90;;;;;;5088391;27;20113;-73
2021/10/03 07:53:50;;;;;;;2.35;1.05;;;14.70;99.90;;;;;;5113569;27;20387;-73
2021/10/03 07:56:17;;;;;;;3.53;1.17;;;14.80;99.90;;;;;;5069749;27;20039;-72
2021/10/03 07:58:43;;;;;;;1.88;0.80;;;14.80;99.90;;;;;;5070725;28;20085;-73
2021/10/03 08:01:10;;;;;;;1.95;0.90;;;14.80;99.90;;;;;;5069355;27;20052;-72
2021/10/03 08:03:37;;;;;;;1.17;0.80;;;14.80;99.90;;;;;;5088314;27;20417;-72
2021/10/03 08:06:03;;;;;;;1.70;0.70;;;14.80;99.90;;;;;;5070273;27;20105;-72
2021/10/03 08:08:30;;;;;;;2.55;0.80;;;14.70;99.90;;;;;;5090178;27;20039;-73
2021/10/03 08:10:57;;;;;;;1.77;0.82;;;14.70;99.90;;;;;;5108016;27;20039;-73
2021/10/03 08:13:23;;;;;;;1.95;0.90;;;14.70;99.90;;;;;;5112962;27;20035;-73
2021/10/03 08:15:50;;;;;;;1.30;0.60;;;14.70;99.90;;;;;;5108075;27;20039;-72
2021/10/03 08:18:16;;;;;;;1.20;0.60;;;14.70;99.90;;;;;;5111386;27;20022;-73
2021/10/03 08:20:43;;;;;;;2.08;0.60;;;14.70;99.90;;;;;;5074609;28;20058;-73
2021/10/03 08:23:10;;;;;;;1.02;0.50;;;14.60;99.90;;;;;;5106284;27;20480;-73
2021/10/03 08:25:36;;;;;;;1.20;0.55;;;14.60;99.90;;;;;;5104891;27;20467;-73
2021/10/03 08:28:03;;;;;;;1.75;0.60;;;14.50;99.90;;;;;;5085508;27;20042;-72
2021/10/03 08:30:30;;;;;;;1.08;0.43;;;14.50;99.90;;;;;;5114404;27;20035;-73
2021/10/03 08:32:56;;;;;;;0.73;0.40;;;14.50;99.90;;;;;;5068282;27;20055;-73
2021/10/03 08:35:22;;;;;;;1.50;0.40;;;14.50;99.90;;;;;;5070531;27;20042;-72
2021/10/03 08:37:52;;;;;;;0.95;0.50;;;14.50;99.90;;;;;;5087512;27;20044;-73
2021/10/03 08:40:18;;;;;;;1.90;0.50;;;14.50;99.90;;;;;;5114192;27;20035;-74
2021/10/03 08:42:45;;;;;;;0.50;0.30;;;14.50;99.90;;;;;;5110998;27;20487;-72
2021/10/03 08:45:12;;;;;;;4.13;3.72;;;14.40;99.90;;;;;;5082214;27;20034;-73
2021/10/03 08:47:41;;;;;;;3.85;2.67;;;14.40;99.90;;;;;;5065633;27;21071;-73
2021/10/03 08:50:13;;;;;;;4.28;2.30;;;14.40;99.90;;;;;;5109671;27;20047;-73
2021/10/03 08:52:42;;;;;;;1.80;1.02;;;14.30;99.90;;;;;;5105626;27;20357;-73
2021/10/03 08:55:10;;;;;;;1.40;0.57;;;14.20;99.90;;;;;;5087794;27;20443;-73
2021/10/03 08:57:36;;;;;;;1.98;1.08;;;14.20;99.90;;;;;;5116229;27;20027;-73
2021/10/03 09:00:19;;;;;;;2.30;1.48;;;14.10;99.90;;;;;;5088350;27;20046;-74
2021/10/03 09:03:02;;;;;;;4.95;0.80;;;14.10;99.90;;;;;;5084925;27;20047;-74
2021/10/03 09:05:32;;;;;;;0.95;0.30;;;14.00;99.90;;;;;;5086999;27;20907;-73
2021/10/03 09:08:11;;;;;;;0.65;0.40;;;14.00;99.90;;;;;;5106252;27;20448;-73
2021/10/03 09:10:57;;;;;;;1.50;0.40;;;13.90;99.90;;;;;;5084332;27;20032;-74
2021/10/03 09:13:40;;;;;;;0.77;0.40;;;14.00;99.90;;;;;;5085572;27;20870;-73
2021/10/03 09:16:15;;;;;;;;;;;13.90;99.90;;;;;;5112442;27;20031;-72
2021/10/03 09:19:01;;;;;;;0.70;0.20;;;13.90;99.90;;;;;;5106142;27;19911;-72
2021/10/03 09:21:32;;;;;;;0.85;0.30;;;13.90;99.90;;;;;;5109836;27;20035;-74
2021/10/03 09:24:01;;;;;;;1.45;0.10;;;13.90;99.90;;;;;;5106763;27;20501;-74
2021/10/03 09:26:28;;;;;;;0.95;0.20;;;13.80;99.90;;;;;;5094379;27;20050;-75
2021/10/03 09:28:55;;;;;;;0.70;0.20;;;13.80;99.90;;;;;;5065454;27;20054;-73
2021/10/03 09:31:22;;;;;;;0.68;0.20;;;13.80;99.90;;;;;;5086658;27;20024;-73
2021/10/03 09:33:58;;;;;;;2.70;1.73;;;13.80;99.90;;;;;;5084357;27;20043;-72
2021/10/03 09:36:26;;;;;;;4.95;2.45;;;13.80;99.90;;;;;;5086378;27;20046;-72
2021/10/03 09:38:58;;;;;;;1.73;0.90;;;13.80;99.90;;;;;;5082755;27;20409;-72
2021/10/03 09:41:29;;;;;;;;;;;13.80;99.90;;;;;;5082016;27;20036;-72
2021/10/03 09:43:58;;;;;;;1.38;0.40;;;13.80;99.90;;;;;;5080926;28;19959;-73
2021/10/03 09:46:49;;;;;;;1.20;0.20;;;13.80;99.90;;;;;;5081592;27;20496;-73
2021/10/03 09:49:16;;;;;;;1.80;0.20;;;13.80;99.90;;;;;;5100914;27;20040;-72
2021/10/03 09:51:49;;;;;;;0.73;0.20;;;13.80;99.90;;;;;;5104844;27;20047;-72
2021/10/03 09:54:17;;;;;;;0.38;0.20;;;13.90;99.90;;;;;;5107126;27;20032;-72
2021/10/03 09:56:45;;;;;;;0.93;0.17;;;13.80;99.90;;;;;;5084643;28;20035;-72
2021/10/03 09:59:12;;;;;;;0.50;0.20;;;13.90;99.90;;;;;;5063334;28;20083;-72
2021/10/03 10:01:46;;;;;;;0.38;0.20;;;13.90;99.90;;;;;;5105860;27;20031;-72
2021/10/03 10:04:15;;;;;;;0.60;0.15;;;13.90;99.90;;;;;;5076089;27;20031;-72
2021/10/03 10:06:45;;;;;;;0.65;0.20;;;13.90;99.90;;;;;;5078527;28;20047;-73
2021/10/03 10:09:15;;;;;;;0.30;0.20;;;13.90;99.90;;;;;;5078865;28;20036;-72
2021/10/03 10:12:10;;;;;;;1.55;0.20;;;14.00;99.90;;;;;;5086330;28;20039;-72
2021/10/03 10:14:40;;;;;;;0.28;0.15;;;14.10;99.90;;;;;;5101578;27;20040;-72
2021/10/03 10:17:26;;;;;;;0.88;0.28;;;14.20;99.90;;;;;;5085713;28;20036;-72
2021/10/03 10:19:55;;;;;;;0.57;0.20;;;14.20;99.90;;;;;;5065785;28;20055;-73
2021/10/03 10:22:22;;;;;;;0.20;0.20;;;14.30;99.90;;;;;;5062354;27;20541;-72
2021/10/03 10:25:05;;;;;;;1.05;0.50;;;14.30;99.90;;;;;;5081559;28;20034;-72
2021/10/03 10:27:35;;;;;;;1.77;1.33;;;14.30;99.90;;;;;;5083720;27;20047;-72
2021/10/03 10:30:11;;;;;;;1.20;0.65;;;14.40;99.90;;;;;;5079436;28;20043;-72
2021/10/03 10:32:56;;;;;;;2.05;0.40;;;14.50;99.90;;;;;;5103659;27;20035;-72
2021/10/03 10:35:23;;;;;;;0.73;0.30;;;14.60;99.90;;;;;;5065438;28;20043;-72
2021/10/03 10:37:54;;;;;;;2.13;0.40;;;14.60;99.90;;;;;;5112955;27;20034;-72
2021/10/03 10:40:23;;;;;;;0.75;0.40;;;14.60;99.90;;;;;;5106526;27;20042;-72
2021/10/03 10:43:10;;;;;;;1.20;0.55;;;14.60;99.90;;;;;;5058212;28;20032;-72
2021/10/03 10:45:41;;;;;;;0.80;0.30;;;14.70;99.90;;;;;;5104279;27;20549;-72
2021/10/03 10:48:10;;;;;;;0.30;0.20;;;14.80;99.90;;;;;;5103013;27;20038;-72
2021/10/03 10:50:40;;;;;;;0.52;0.20;;;14.80;99.90;;;;;;5080795;28;20048;-72
2021/10/03 10:53:39;;;;;;;1.10;0.30;;;14.80;99.90;;;;;;5080406;28;20396;-72
2021/10/03 10:56:24;;;;;;;0.65;0.30;;;14.90;99.90;;;;;;5089197;28;20032;-73
2021/10/03 10:58:51;;;;;;;0.70;0.30;;;14.90;99.90;;;;;;5070730;28;20036;-73
2021/10/03 11:01:18;;;;;;;1.85;0.30;;;14.90;99.90;;;;;;5082075;28;20036;-72
2021/10/03 11:03:50;;;;;;;0.57;0.35;;;14.90;99.90;;;;;;5080743;28;20598;-72
2021/10/03 11:06:19;;;;;;;0.30;0.20;;;14.90;99.90;;;;;;5079263;28;20039;-73
2021/10/03 11:09:00;;;;;;;0.50;0.20;;;15.00;99.90;;;;;;5081942;28;20380;-73
2021/10/03 11:11:31;;;;;;;0.65;0.40;;;15.00;99.90;;;;;;5081415;28;20040;-73
2021/10/03 11:14:18;;;;;;;2.25;0.60;;;15.00;99.90;;;;;;5088032;28;20048;-73
2021/10/03 11:16:46;;;;;;;0.70;0.40;;;15.00;99.90;;;;;;5075670;28;20055;-73
2021/10/03 11:19:17;;;;;;;0.85;0.40;;;15.00;99.90;;;;;;5082447;28;20035;-73
2021/10/03 11:21:52;;;;;;;0.68;0.40;;;15.00;99.90;;;;;;5067222;28;20024;-73
2021/10/03 11:24:26;;;;;;;0.57;0.30;;;15.00;99.90;;;;;;5082306;28;20036;-73
2021/10/03 11:26:52;;;;;;;0.40;0.30;;;15.10;99.90;;;;;;5083240;28;20028;-73
2021/10/03 11:29:21;;;;;;;1.02;0.40;;;15.10;99.90;;;;;;5082165;28;20264;-74
2021/10/03 11:31:50;;;;;;;1.50;0.57;;;15.10;99.90;;;;;;5085662;28;20408;-73
2021/10/03 11:34:36;;;;;;;0.75;0.52;;;15.10;99.90;;;;;;5084225;28;20044;-73
2021/10/03 11:37:25;;;;;;;1.73;1.10;;;15.10;99.90;;;;;;5065867;28;20448;-74
2021/10/03 11:40:07;;;;;;;5.43;2.03;;;15.10;99.90;;;;;;5085972;28;20039;-73
2021/10/03 11:42:36;;;;;;;2.53;2.33;;;15.20;99.90;;;;;;5064511;28;20114;-72
2021/10/03 11:45:26;;;;;;;3.13;2.42;;;15.20;99.90;;;;;;5080470;28;20113;-72
2021/10/03 11:48:07;;;;;;;2.20;1.90;;;15.20;99.90;;;;;;5079197;28;20024;-74
2021/10/03 11:50:42;;;;;;;4.13;2.67;;;15.30;99.90;;;;;;5074979;28;20056;-73
2021/10/03 11:53:31;;;;;;;2.63;1.40;;;15.30;99.90;;;;;;5077207;28;20047;-72
2021/10/03 11:56:09;;;;;;;1.65;1.10;;;15.30;99.90;;;;;;5080971;28;20396;-72
2021/10/03 11:58:37;;;;;;;1.58;1.05;;;15.30;99.90;;;;;;5083878;28;20036;-72
2021/10/03 12:01:07;;;;;;;1.40;1.08;;;15.30;99.90;;;;;;5084155;28;20039;-72
2021/10/03 12:03:53;;;;;;;3.75;1.00;;;15.30;99.90;;;;;;5052098;28;20078;-73
2021/10/03 12:06:28;;;;;;;1.92;1.05;;;15.30;99.90;;;;;;5061781;28;20043;-74
2021/10/03 12:08:55;;;;;;;1.02;0.90;;;15.40;99.90;;;;;;5076272;28;20523;-74
2021/10/03 12:11:22;;;;;;;1.40;1.30;;;15.40;99.90;;;;;;5082604;28;20042;-74
2021/10/03 12:13:57;;;;;;;1.05;0.93;;;15.40;99.90;;;;;;5080998;28;20052;-74
2021/10/03 12:16:23;;;;;;;1.73;1.08;;;15.40;99.90;;;;;;5082393;28;20040;-73
2021/10/03 12:18:59;;;;;;;22.35;20.00;;;15.40;99.90;;;;;;5082519;28;20472;-74
2021/10/03 12:21:25;;;;;;;9.98;7.53;;;15.40;99.90;;;;;;5080007;28;20389;-74
2021/10/03 12:24:00;;;;;;;5.70;4.05;;;15.40;99.90;;;;;;5082760;28;20032;-75
2021/10/03 12:26:33;;;;;;;3.17;2.92;;;15.40;99.90;;;;;;5087302;28;20040;-77
2021/10/03 12:29:25;;;;;;;3.55;2.80;;;15.50;99.90;;;;;;5084837;28;20036;-75
2021/10/03 12:32:08;;;;;;;2.78;2.58;;;15.50;99.90;;;;;;5088342;28;20396;-75
2021/10/03 12:34:40;;;;;;;2.20;2.00;;;15.50;99.90;;;;;;5062677;28;20058;-72
2021/10/03 12:37:15;;;;;;;2.92;2.15;;;15.60;99.90;;;;;;5082600;28;20028;-75
2021/10/03 12:39:45;;;;;;;2.70;2.50;;;15.60;99.90;;;;;;5086718;28;20548;-75
2021/10/03 12:42:15;;;;;;;2.40;2.20;;;15.60;99.90;;;;;;5090630;28;20078;-75
2021/10/03 12:44:43;;;;;;;2.35;2.03;;;15.70;99.90;;;;;;5079098;28;20043;-75
2021/10/03 12:47:11;;;;;;;3.35;3.00;;;15.70;99.90;;;;;;5084241;28;20040;-76
2021/10/03 12:49:38;;;;;;;3.50;3.20;;;15.70;99.90;;;;;;5079719;28;20032;-75
2021/10/03 12:52:07;;;;;;;3.95;3.55;;;15.80;99.90;;;;;;5076306;28;20056;-75
2021/10/03 12:54:35;;;;;;;2.30;2.10;;;15.80;99.90;;;;;;5072986;28;20029;-76
2021/10/03 12:57:03;;;;;;;1.58;1.45;;;15.90;99.90;;;;;;5076498;28;20032;-73